sensor_id;sensor_type;location;lat;lon;timestamp;P1;durP1;ratioP1;P2;durP2;ratioP2
5622;SDS011;2833;50.432;10.706;2024-03-23T00:55:42;12.27;;;7.70;;
5622;SDS011;2833;50.432;10.706;2024-03-23T00:58:08;9.30;;;6.00;;
5622;SDS011;2833;50.432;10.706;2024-03-23T01:00:33;8.77;;;5.80;;
5622;SDS011;2833;50.432;10.706;2024-03-23T01:02:59;12.77;;;7.60;;
5622;SDS011;2833;50.432;10.706;2024-03-23T01:05:24;11.17;;;6.80;;
5622;SDS011;2833;50.432;10.706;2024-03-23T01:07:49;16.77;;;9.83;;
5622;SDS011;2833;50.432;10.706;2024-03-23T01:10:14;22.57;;;9.37;;
5622;SDS011;2833;50.432;10.706;2024-03-23T01:12:39;13.97;;;7.60;;
5622;SDS011;2833;50.432;10.706;2024-03-23T01:15:05;14.47;;;7.27;;
5622;SDS011;2833;50.432;10.706;2024-03-23T01:17:30;11.17;;;7.10;;
5622;SDS011;2833;50.432;10.706;2024-03-23T01:19:55;10.10;;;6.93;;
5622;SDS011;2833;50.432;10.706;2024-03-23T01:22:20;11.73;;;6.90;;
5622;SDS011;2833;50.432;10.706;2024-03-23T01:24:45;9.87;;;6.50;;
5622;SDS011;2833;50.432;10.706;2024-03-23T01:27:11;12.97;;;7.20;;
5622;SDS011;2833;50.432;10.706;2024-03-23T01:29:36;10.90;;;6.47;;
5622;SDS011;2833;50.432;10.706;2024-03-23T01:32:01;11.07;;;6.50;;
5622;SDS011;2833;50.432;10.706;2024-03-23T01:34:26;9.17;;;6.20;;
5622;SDS011;2833;50.432;10.706;2024-03-23T01:36:52;8.17;;;5.80;;
5622;SDS011;2833;50.432;10.706;2024-03-23T01:39:18;7.17;;;5.50;;
5622;SDS011;2833;50.432;10.706;2024-03-23T01:41:43;10.43;;;4.87;;
5622;SDS011;2833;50.432;10.706;2024-03-23T01:44:08;8.43;;;5.27;;
5622;SDS011;2833;50.432;10.706;2024-03-23T01:46:34;7.60;;;4.90;;
5622;SDS011;2833;50.432;10.706;2024-03-23T01:48:59;7.80;;;5.80;;
5622;SDS011;2833;50.432;10.706;2024-03-23T01:51:25;10.60;;;6.33;;
5622;SDS011;2833;50.432;10.706;2024-03-23T01:53:50;9.70;;;5.80;;
5622;SDS011;2833;50.432;10.706;2024-03-23T01:56:15;7.97;;;5.20;;
5622;SDS011;2833;50.432;10.706;2024-03-23T01:58:41;7.70;;;5.50;;
5622;SDS011;2833;50.432;10.706;2024-03-23T02:01:06;8.83;;;5.50;;
5622;SDS011;2833;50.432;10.706;2024-03-23T02:03:31;10.37;;;6.03;;
5622;SDS011;2833;50.432;10.706;2024-03-23T02:05:57;10.20;;;5.87;;
5622;SDS011;2833;50.432;10.706;2024-03-23T02:08:22;10.30;;;5.70;;
5622;SDS011;2833;50.432;10.706;2024-03-23T02:10:48;9.60;;;6.27;;
5622;SDS011;2833;50.432;10.706;2024-03-23T02:13:14;7.17;;;5.13;;
5622;SDS011;2833;50.432;10.706;2024-03-23T02:15:40;6.13;;;4.70;;
5622;SDS011;2833;50.432;10.706;2024-03-23T02:18:07;7.07;;;5.00;;
5622;SDS011;2833;50.432;10.706;2024-03-23T02:20:32;6.30;;;4.53;;
5622;SDS011;2833;50.432;10.706;2024-03-23T02:22:57;7.73;;;5.27;;
5622;SDS011;2833;50.432;10.706;2024-03-23T02:25:22;6.50;;;4.97;;
5622;SDS011;2833;50.432;10.706;2024-03-23T02:27:47;6.00;;;4.60;;
5622;SDS011;2833;50.432;10.706;2024-03-23T02:30:13;7.33;;;4.77;;
5622;SDS011;2833;50.432;10.706;2024-03-23T02:32:38;6.20;;;4.40;;
5622;SDS011;2833;50.432;10.706;2024-03-23T02:35:03;7.80;;;4.60;;
5622;SDS011;2833;50.432;10.706;2024-03-23T02:37:29;12.57;;;4.97;;
5622;SDS011;2833;50.432;10.706;2024-03-23T02:39:55;7.20;;;5.00;;
5622;SDS011;2833;50.432;10.706;2024-03-23T02:42:20;6.60;;;5.00;;
5622;SDS011;2833;50.432;10.706;2024-03-23T02:44:45;7.13;;;5.23;;
5622;SDS011;2833;50.432;10.706;2024-03-23T02:47:10;5.47;;;4.80;;
5622;SDS011;2833;50.432;10.706;2024-03-23T02:49:36;8.20;;;5.20;;
5622;SDS011;2833;50.432;10.706;2024-03-23T02:52:01;7.90;;;5.77;;
5622;SDS011;2833;50.432;10.706;2024-03-23T02:54:26;7.13;;;5.50;;
5622;SDS011;2833;50.432;10.706;2024-03-23T02:56:51;9.40;;;5.80;;
5622;SDS011;2833;50.432;10.706;2024-03-23T02:59:17;8.67;;;5.93;;
5622;SDS011;2833;50.432;10.706;2024-03-23T03:01:42;6.17;;;5.00;;
5622;SDS011;2833;50.432;10.706;2024-03-23T03:04:07;8.53;;;6.03;;
5622;SDS011;2833;50.432;10.706;2024-03-23T03:06:32;8.97;;;6.20;;
5622;SDS011;2833;50.432;10.706;2024-03-23T03:08:58;9.03;;;5.67;;
5622;SDS011;2833;50.432;10.706;2024-03-23T03:11:23;8.73;;;5.50;;
5622;SDS011;2833;50.432;10.706;2024-03-23T03:13:48;10.33;;;6.50;;
5622;SDS011;2833;50.432;10.706;2024-03-23T03:16:13;10.60;;;6.60;;
5622;SDS011;2833;50.432;10.706;2024-03-23T03:18:39;8.63;;;6.10;;
5622;SDS011;2833;50.432;10.706;2024-03-23T03:21:05;9.10;;;6.10;;
5622;SDS011;2833;50.432;10.706;2024-03-23T03:23:35;11.63;;;6.60;;
5622;SDS011;2833;50.432;10.706;2024-03-23T03:26:00;9.27;;;5.90;;
5622;SDS011;2833;50.432;10.706;2024-03-23T03:28:26;7.30;;;5.77;;
5622;SDS011;2833;50.432;10.706;2024-03-23T03:30:55;12.80;;;7.03;;
5622;SDS011;2833;50.432;10.706;2024-03-23T03:33:20;14.13;;;7.10;;
5622;SDS011;2833;50.432;10.706;2024-03-23T03:35:45;9.53;;;6.57;;
5622;SDS011;2833;50.432;10.706;2024-03-23T03:38:11;8.00;;;6.10;;
5622;SDS011;2833;50.432;10.706;2024-03-23T03:40:36;11.03;;;6.90;;
5622;SDS011;2833;50.432;10.706;2024-03-23T03:43:01;11.77;;;6.93;;
5622;SDS011;2833;50.432;10.706;2024-03-23T03:45:26;10.90;;;7.50;;
5622;SDS011;2833;50.432;10.706;2024-03-23T03:47:51;9.30;;;6.23;;
5622;SDS011;2833;50.432;10.706;2024-03-23T03:50:16;10.70;;;6.43;;
5622;SDS011;2833;50.432;10.706;2024-03-23T03:52:42;9.50;;;5.90;;
5622;SDS011;2833;50.432;10.706;2024-03-23T03:55:12;9.30;;;6.23;;
5622;SDS011;2833;50.432;10.706;2024-03-23T03:57:37;9.77;;;6.33;;
5622;SDS011;2833;50.432;10.706;2024-03-23T04:00:02;8.67;;;6.20;;
5622;SDS011;2833;50.432;10.706;2024-03-23T04:02:29;7.87;;;5.87;;
5622;SDS011;2833;50.432;10.706;2024-03-23T04:04:54;8.50;;;6.53;;
5622;SDS011;2833;50.432;10.706;2024-03-23T04:07:19;15.40;;;6.83;;
5622;SDS011;2833;50.432;10.706;2024-03-23T04:09:47;9.40;;;6.53;;
5622;SDS011;2833;50.432;10.706;2024-03-23T04:12:12;9.60;;;7.10;;
5622;SDS011;2833;50.432;10.706;2024-03-23T04:14:38;11.40;;;6.93;;
5622;SDS011;2833;50.432;10.706;2024-03-23T04:17:03;10.37;;;7.00;;
5622;SDS011;2833;50.432;10.706;2024-03-23T04:19:28;9.27;;;6.57;;
5622;SDS011;2833;50.432;10.706;2024-03-23T04:21:53;10.33;;;6.90;;
5622;SDS011;2833;50.432;10.706;2024-03-23T04:24:18;10.70;;;7.10;;
5622;SDS011;2833;50.432;10.706;2024-03-23T04:26:46;11.27;;;7.33;;
5622;SDS011;2833;50.432;10.706;2024-03-23T04:29:11;10.10;;;7.00;;
5622;SDS011;2833;50.432;10.706;2024-03-23T04:31:37;9.53;;;6.77;;
5622;SDS011;2833;50.432;10.706;2024-03-23T04:34:02;8.40;;;6.80;;
5622;SDS011;2833;50.432;10.706;2024-03-23T04:36:27;11.30;;;7.20;;
5622;SDS011;2833;50.432;10.706;2024-03-23T04:38:53;9.07;;;6.40;;
5622;SDS011;2833;50.432;10.706;2024-03-23T04:41:18;11.07;;;7.67;;
5622;SDS011;2833;50.432;10.706;2024-03-23T04:43:43;11.20;;;7.90;;
5622;SDS011;2833;50.432;10.706;2024-03-23T04:46:08;11.10;;;6.87;;
5622;SDS011;2833;50.432;10.706;2024-03-23T04:48:33;10.20;;;6.80;;
5622;SDS011;2833;50.432;10.706;2024-03-23T04:50:59;11.67;;;7.20;;
5622;SDS011;2833;50.432;10.706;2024-03-23T04:53:24;11.30;;;7.47;;
5622;SDS011;2833;50.432;10.706;2024-03-23T04:55:53;12.40;;;8.07;;
5622;SDS011;2833;50.432;10.706;2024-03-23T04:58:18;10.10;;;6.90;;
5622;SDS011;2833;50.432;10.706;2024-03-23T05:00:43;15.10;;;7.20;;
5622;SDS011;2833;50.432;10.706;2024-03-23T05:03:08;10.33;;;6.80;;
5622;SDS011;2833;50.432;10.706;2024-03-23T05:05:34;12.43;;;7.30;;
5622;SDS011;2833;50.432;10.706;2024-03-23T05:07:59;10.50;;;7.40;;
5622;SDS011;2833;50.432;10.706;2024-03-23T05:10:24;12.70;;;8.80;;
5622;SDS011;2833;50.432;10.706;2024-03-23T05:12:50;11.53;;;7.10;;
5622;SDS011;2833;50.432;10.706;2024-03-23T05:15:15;11.80;;;7.77;;
5622;SDS011;2833;50.432;10.706;2024-03-23T05:17:40;14.40;;;7.30;;
5622;SDS011;2833;50.432;10.706;2024-03-23T05:20:05;11.33;;;7.57;;
5622;SDS011;2833;50.432;10.706;2024-03-23T05:22:34;12.03;;;7.80;;
5622;SDS011;2833;50.432;10.706;2024-03-23T05:24:59;15.60;;;8.03;;
5622;SDS011;2833;50.432;10.706;2024-03-23T05:27:25;10.87;;;7.57;;
5622;SDS011;2833;50.432;10.706;2024-03-23T05:29:50;14.73;;;7.80;;
5622;SDS011;2833;50.432;10.706;2024-03-23T05:32:15;13.77;;;7.07;;
5622;SDS011;2833;50.432;10.706;2024-03-23T05:34:40;10.63;;;7.20;;
5622;SDS011;2833;50.432;10.706;2024-03-23T05:37:05;11.77;;;7.70;;
5622;SDS011;2833;50.432;10.706;2024-03-23T05:39:30;17.40;;;7.77;;
5622;SDS011;2833;50.432;10.706;2024-03-23T05:41:56;12.03;;;7.90;;
5622;SDS011;2833;50.432;10.706;2024-03-23T05:44:21;9.90;;;7.00;;
5622;SDS011;2833;50.432;10.706;2024-03-23T05:46:46;11.23;;;7.60;;
5622;SDS011;2833;50.432;10.706;2024-03-23T05:49:13;10.40;;;7.47;;
5622;SDS011;2833;50.432;10.706;2024-03-23T05:51:39;11.80;;;7.37;;
5622;SDS011;2833;50.432;10.706;2024-03-23T05:54:04;11.60;;;7.13;;
5622;SDS011;2833;50.432;10.706;2024-03-23T05:56:29;11.73;;;8.33;;
5622;SDS011;2833;50.432;10.706;2024-03-23T05:58:54;17.70;;;7.57;;
5622;SDS011;2833;50.432;10.706;2024-03-23T06:01:20;16.40;;;7.83;;
5622;SDS011;2833;50.432;10.706;2024-03-23T06:03:45;14.80;;;9.60;;
5622;SDS011;2833;50.432;10.706;2024-03-23T06:06:10;16.50;;;10.30;;
5622;SDS011;2833;50.432;10.706;2024-03-23T06:08:37;17.23;;;9.10;;
5622;SDS011;2833;50.432;10.706;2024-03-23T06:11:03;13.23;;;9.50;;
5622;SDS011;2833;50.432;10.706;2024-03-23T06:13:29;12.10;;;8.20;;
5622;SDS011;2833;50.432;10.706;2024-03-23T06:15:55;12.70;;;8.33;;
5622;SDS011;2833;50.432;10.706;2024-03-23T06:18:20;12.87;;;7.97;;
5622;SDS011;2833;50.432;10.706;2024-03-23T06:20:46;14.53;;;9.10;;
5622;SDS011;2833;50.432;10.706;2024-03-23T06:23:11;17.13;;;9.20;;
5622;SDS011;2833;50.432;10.706;2024-03-23T06:25:37;12.40;;;9.30;;
5622;SDS011;2833;50.432;10.706;2024-03-23T06:28:03;14.73;;;9.73;;
5622;SDS011;2833;50.432;10.706;2024-03-23T06:30:29;19.97;;;9.53;;
5622;SDS011;2833;50.432;10.706;2024-03-23T06:32:54;16.10;;;10.30;;
5622;SDS011;2833;50.432;10.706;2024-03-23T06:35:19;20.37;;;9.57;;
5622;SDS011;2833;50.432;10.706;2024-03-23T06:37:45;13.90;;;9.30;;
5622;SDS011;2833;50.432;10.706;2024-03-23T06:40:10;19.67;;;9.43;;
5622;SDS011;2833;50.432;10.706;2024-03-23T06:42:36;22.03;;;12.90;;
5622;SDS011;2833;50.432;10.706;2024-03-23T06:45:01;17.63;;;10.57;;
5622;SDS011;2833;50.432;10.706;2024-03-23T06:47:26;19.20;;;10.70;;
5622;SDS011;2833;50.432;10.706;2024-03-23T06:49:52;17.80;;;11.63;;
5622;SDS011;2833;50.432;10.706;2024-03-23T06:52:17;17.40;;;11.53;;
5622;SDS011;2833;50.432;10.706;2024-03-23T06:54:42;18.23;;;11.80;;
5622;SDS011;2833;50.432;10.706;2024-03-23T06:57:09;19.83;;;10.43;;
5622;SDS011;2833;50.432;10.706;2024-03-23T06:59:34;13.30;;;9.37;;
5622;SDS011;2833;50.432;10.706;2024-03-23T07:01:59;17.40;;;8.37;;
5622;SDS011;2833;50.432;10.706;2024-03-23T07:04:25;10.50;;;5.93;;
5622;SDS011;2833;50.432;10.706;2024-03-23T07:06:50;13.67;;;8.50;;
5622;SDS011;2833;50.432;10.706;2024-03-23T07:09:15;9.20;;;6.00;;
5622;SDS011;2833;50.432;10.706;2024-03-23T07:11:40;9.00;;;4.90;;
5622;SDS011;2833;50.432;10.706;2024-03-23T07:14:06;4.57;;;3.33;;
5622;SDS011;2833;50.432;10.706;2024-03-23T07:16:31;7.23;;;3.57;;
5622;SDS011;2833;50.432;10.706;2024-03-23T07:18:56;6.77;;;4.83;;
5622;SDS011;2833;50.432;10.706;2024-03-23T07:21:21;7.53;;;4.63;;
5622;SDS011;2833;50.432;10.706;2024-03-23T07:23:47;8.23;;;4.20;;
5622;SDS011;2833;50.432;10.706;2024-03-23T07:26:12;9.53;;;4.67;;
5622;SDS011;2833;50.432;10.706;2024-03-23T07:28:37;12.43;;;5.87;;
5622;SDS011;2833;50.432;10.706;2024-03-23T07:31:10;5.43;;;3.93;;
5622;SDS011;2833;50.432;10.706;2024-03-23T07:33:36;10.63;;;5.10;;
5622;SDS011;2833;50.432;10.706;2024-03-23T07:36:01;3.57;;;2.70;;
5622;SDS011;2833;50.432;10.706;2024-03-23T07:38:27;5.00;;;3.80;;
5622;SDS011;2833;50.432;10.706;2024-03-23T07:41:02;7.83;;;4.40;;
5622;SDS011;2833;50.432;10.706;2024-03-23T07:43:28;6.10;;;3.07;;
5622;SDS011;2833;50.432;10.706;2024-03-23T07:45:53;4.27;;;3.50;;
5622;SDS011;2833;50.432;10.706;2024-03-23T07:48:18;16.50;;;5.03;;
5622;SDS011;2833;50.432;10.706;2024-03-23T07:50:44;8.03;;;3.60;;
5622;SDS011;2833;50.432;10.706;2024-03-23T07:53:09;13.13;;;4.70;;
5622;SDS011;2833;50.432;10.706;2024-03-23T07:55:34;10.60;;;3.97;;
5622;SDS011;2833;50.432;10.706;2024-03-23T07:57:59;5.00;;;3.27;;
5622;SDS011;2833;50.432;10.706;2024-03-23T08:00:24;7.10;;;3.90;;
5622;SDS011;2833;50.432;10.706;2024-03-23T08:02:51;4.90;;;3.33;;
5622;SDS011;2833;50.432;10.706;2024-03-23T08:05:16;4.30;;;2.97;;
5622;SDS011;2833;50.432;10.706;2024-03-23T08:07:41;3.20;;;2.53;;
5622;SDS011;2833;50.432;10.706;2024-03-23T08:10:06;3.90;;;2.33;;
5622;SDS011;2833;50.432;10.706;2024-03-23T08:12:31;2.80;;;1.97;;
5622;SDS011;2833;50.432;10.706;2024-03-23T08:14:57;2.03;;;1.70;;
5622;SDS011;2833;50.432;10.706;2024-03-23T08:17:22;2.30;;;1.73;;
5622;SDS011;2833;50.432;10.706;2024-03-23T08:19:47;2.20;;;1.40;;
5622;SDS011;2833;50.432;10.706;2024-03-23T08:22:13;0.80;;;0.80;;
5622;SDS011;2833;50.432;10.706;2024-03-23T08:24:38;0.90;;;0.90;;
5622;SDS011;2833;50.432;10.706;2024-03-23T08:27:03;0.97;;;0.87;;
5622;SDS011;2833;50.432;10.706;2024-03-23T08:29:29;2.90;;;2.43;;
5622;SDS011;2833;50.432;10.706;2024-03-23T08:31:55;1.80;;;1.63;;
5622;SDS011;2833;50.432;10.706;2024-03-23T08:34:20;2.53;;;1.53;;
5622;SDS011;2833;50.432;10.706;2024-03-23T08:36:45;1.40;;;1.27;;
5622;SDS011;2833;50.432;10.706;2024-03-23T08:39:10;1.97;;;1.80;;
5622;SDS011;2833;50.432;10.706;2024-03-23T08:41:35;1.37;;;1.27;;
5622;SDS011;2833;50.432;10.706;2024-03-23T08:44:00;1.43;;;1.33;;
5622;SDS011;2833;50.432;10.706;2024-03-23T08:46:26;2.23;;;1.17;;
5622;SDS011;2833;50.432;10.706;2024-03-23T08:48:52;1.87;;;0.90;;
5622;SDS011;2833;50.432;10.706;2024-03-23T08:51:18;1.50;;;1.40;;
5622;SDS011;2833;50.432;10.706;2024-03-23T08:53:43;0.90;;;0.90;;
5622;SDS011;2833;50.432;10.706;2024-03-23T08:56:09;1.00;;;0.90;;
5622;SDS011;2833;50.432;10.706;2024-03-23T08:58:35;0.97;;;0.97;;
5622;SDS011;2833;50.432;10.706;2024-03-23T09:01:04;0.90;;;0.90;;
5622;SDS011;2833;50.432;10.706;2024-03-23T09:03:29;0.80;;;0.80;;
5622;SDS011;2833;50.432;10.706;2024-03-23T09:05:55;2.00;;;1.37;;
5622;SDS011;2833;50.432;10.706;2024-03-23T09:08:20;0.70;;;0.70;;
5622;SDS011;2833;50.432;10.706;2024-03-23T09:10:46;1.73;;;1.40;;
5622;SDS011;2833;50.432;10.706;2024-03-23T09:13:11;1.00;;;1.00;;
5622;SDS011;2833;50.432;10.706;2024-03-23T09:15:37;1.37;;;1.20;;
5622;SDS011;2833;50.432;10.706;2024-03-23T09:18:03;1.23;;;1.00;;
5622;SDS011;2833;50.432;10.706;2024-03-23T09:20:28;1.33;;;1.23;;
5622;SDS011;2833;50.432;10.706;2024-03-23T09:22:54;2.73;;;2.17;;
5622;SDS011;2833;50.432;10.706;2024-03-23T09:25:19;1.60;;;1.43;;
5622;SDS011;2833;50.432;10.706;2024-03-23T09:27:47;0.90;;;0.90;;
5622;SDS011;2833;50.432;10.706;2024-03-23T09:30:12;1.40;;;1.17;;
5622;SDS011;2833;50.432;10.706;2024-03-23T09:32:38;1.37;;;1.27;;
5622;SDS011;2833;50.432;10.706;2024-03-23T09:35:03;6.47;;;3.70;;
5622;SDS011;2833;50.432;10.706;2024-03-23T09:37:29;2.97;;;2.40;;
5622;SDS011;2833;50.432;10.706;2024-03-23T09:39:54;2.03;;;1.50;;
5622;SDS011;2833;50.432;10.706;2024-03-23T09:42:19;1.93;;;1.63;;
5622;SDS011;2833;50.432;10.706;2024-03-23T09:44:44;1.50;;;1.40;;
5622;SDS011;2833;50.432;10.706;2024-03-23T09:47:10;1.60;;;1.50;;
5622;SDS011;2833;50.432;10.706;2024-03-23T09:49:35;1.60;;;1.50;;
5622;SDS011;2833;50.432;10.706;2024-03-23T09:52:03;2.20;;;2.00;;
5622;SDS011;2833;50.432;10.706;2024-03-23T09:54:28;2.50;;;2.30;;
5622;SDS011;2833;50.432;10.706;2024-03-23T09:56:53;2.27;;;2.00;;
5622;SDS011;2833;50.432;10.706;2024-03-23T09:59:19;1.40;;;1.27;;
5622;SDS011;2833;50.432;10.706;2024-03-23T10:01:44;5.50;;;3.70;;
5622;SDS011;2833;50.432;10.706;2024-03-23T10:04:09;14.53;;;7.47;;
5622;SDS011;2833;50.432;10.706;2024-03-23T10:06:34;8.80;;;4.00;;
5622;SDS011;2833;50.432;10.706;2024-03-23T10:09:00;1.23;;;1.07;;
5622;SDS011;2833;50.432;10.706;2024-03-23T10:11:25;57.50;;;16.73;;
5622;SDS011;2833;50.432;10.706;2024-03-23T10:13:52;12.17;;;5.97;;
5622;SDS011;2833;50.432;10.706;2024-03-23T10:16:21;5.17;;;3.10;;
5622;SDS011;2833;50.432;10.706;2024-03-23T10:18:47;9.23;;;5.77;;
5622;SDS011;2833;50.432;10.706;2024-03-23T10:21:13;3.47;;;2.27;;
5622;SDS011;2833;50.432;10.706;2024-03-23T10:23:39;6.13;;;2.87;;
5622;SDS011;2833;50.432;10.706;2024-03-23T10:28:52;7.20;;;4.07;;
5622;SDS011;2833;50.432;10.706;2024-03-23T10:31:17;21.90;;;6.40;;
5622;SDS011;2833;50.432;10.706;2024-03-23T10:33:44;8.93;;;2.90;;
5622;SDS011;2833;50.432;10.706;2024-03-23T10:36:09;14.30;;;4.17;;
5622;SDS011;2833;50.432;10.706;2024-03-23T10:38:35;15.63;;;3.90;;
5622;SDS011;2833;50.432;10.706;2024-03-23T10:41:01;17.67;;;6.47;;
5622;SDS011;2833;50.432;10.706;2024-03-23T10:43:26;9.70;;;5.43;;
5622;SDS011;2833;50.432;10.706;2024-03-23T10:45:52;6.47;;;2.90;;
5622;SDS011;2833;50.432;10.706;2024-03-23T10:48:17;7.93;;;3.57;;
5622;SDS011;2833;50.432;10.706;2024-03-23T10:50:43;3.80;;;2.30;;
5622;SDS011;2833;50.432;10.706;2024-03-23T10:53:08;53.40;;;2.80;;
5622;SDS011;2833;50.432;10.706;2024-03-23T10:55:33;7.37;;;3.97;;
5622;SDS011;2833;50.432;10.706;2024-03-23T10:57:59;5.13;;;3.53;;
5622;SDS011;2833;50.432;10.706;2024-03-23T11:00:25;8.27;;;2.03;;
5622;SDS011;2833;50.432;10.706;2024-03-23T11:02:50;5.53;;;2.93;;
5622;SDS011;2833;50.432;10.706;2024-03-23T11:05:28;8.07;;;4.20;;
5622;SDS011;2833;50.432;10.706;2024-03-23T11:07:53;4.07;;;3.27;;
5622;SDS011;2833;50.432;10.706;2024-03-23T11:10:29;1.53;;;1.43;;
5622;SDS011;2833;50.432;10.706;2024-03-23T11:12:55;5.03;;;2.30;;
5622;SDS011;2833;50.432;10.706;2024-03-23T11:15:20;8.20;;;3.23;;
5622;SDS011;2833;50.432;10.706;2024-03-23T11:18:02;22.27;;;9.23;;
5622;SDS011;2833;50.432;10.706;2024-03-23T11:20:31;3.13;;;2.80;;
5622;SDS011;2833;50.432;10.706;2024-03-23T11:22:56;9.37;;;4.97;;
5622;SDS011;2833;50.432;10.706;2024-03-23T11:25:22;19.00;;;4.30;;
5622;SDS011;2833;50.432;10.706;2024-03-23T11:27:49;5.97;;;3.60;;
5622;SDS011;2833;50.432;10.706;2024-03-23T11:30:15;9.67;;;4.70;;
5622;SDS011;2833;50.432;10.706;2024-03-23T11:32:41;19.37;;;9.50;;
5622;SDS011;2833;50.432;10.706;2024-03-23T11:35:07;30.67;;;13.13;;
5622;SDS011;2833;50.432;10.706;2024-03-23T11:37:34;27.60;;;13.50;;
5622;SDS011;2833;50.432;10.706;2024-03-23T11:40:00;39.47;;;12.30;;
5622;SDS011;2833;50.432;10.706;2024-03-23T11:42:26;53.00;;;14.73;;
5622;SDS011;2833;50.432;10.706;2024-03-23T11:44:51;8.80;;;4.10;;
5622;SDS011;2833;50.432;10.706;2024-03-23T11:47:17;9.43;;;4.17;;
5622;SDS011;2833;50.432;10.706;2024-03-23T11:49:42;1.77;;;1.63;;
5622;SDS011;2833;50.432;10.706;2024-03-23T11:52:07;8.00;;;4.57;;
5622;SDS011;2833;50.432;10.706;2024-03-23T11:54:32;13.53;;;6.17;;
5622;SDS011;2833;50.432;10.706;2024-03-23T11:57:04;9.60;;;4.17;;
5622;SDS011;2833;50.432;10.706;2024-03-23T11:59:39;7.30;;;3.40;;
5622;SDS011;2833;50.432;10.706;2024-03-23T12:02:12;9.80;;;3.47;;
5622;SDS011;2833;50.432;10.706;2024-03-23T12:04:40;10.73;;;4.40;;
5622;SDS011;2833;50.432;10.706;2024-03-23T12:07:15;9.50;;;4.83;;
5622;SDS011;2833;50.432;10.706;2024-03-23T12:09:40;8.87;;;3.77;;
5622;SDS011;2833;50.432;10.706;2024-03-23T12:12:10;4.27;;;3.17;;
5622;SDS011;2833;50.432;10.706;2024-03-23T12:14:35;3.50;;;2.63;;
5622;SDS011;2833;50.432;10.706;2024-03-23T12:17:07;3.33;;;1.73;;
5622;SDS011;2833;50.432;10.706;2024-03-23T12:19:32;9.47;;;3.60;;
5622;SDS011;2833;50.432;10.706;2024-03-23T12:21:58;1.30;;;1.20;;
5622;SDS011;2833;50.432;10.706;2024-03-23T12:24:23;2.43;;;2.13;;
5622;SDS011;2833;50.432;10.706;2024-03-23T12:26:48;4.23;;;1.50;;
5622;SDS011;2833;50.432;10.706;2024-03-23T12:29:15;2.13;;;1.37;;
5622;SDS011;2833;50.432;10.706;2024-03-23T12:31:40;3.00;;;1.87;;
5622;SDS011;2833;50.432;10.706;2024-03-23T12:34:05;3.37;;;2.20;;
5622;SDS011;2833;50.432;10.706;2024-03-23T12:36:31;5.20;;;2.57;;
5622;SDS011;2833;50.432;10.706;2024-03-23T12:38:56;4.43;;;2.10;;
5622;SDS011;2833;50.432;10.706;2024-03-23T12:41:21;8.23;;;4.13;;
5622;SDS011;2833;50.432;10.706;2024-03-23T12:43:46;13.90;;;4.20;;
5622;SDS011;2833;50.432;10.706;2024-03-23T12:46:11;24.60;;;7.67;;
5622;SDS011;2833;50.432;10.706;2024-03-23T12:48:37;27.67;;;15.37;;
5622;SDS011;2833;50.432;10.706;2024-03-23T12:51:02;13.63;;;6.53;;
5622;SDS011;2833;50.432;10.706;2024-03-23T12:53:27;14.17;;;7.00;;
5622;SDS011;2833;50.432;10.706;2024-03-23T12:55:52;5.73;;;3.10;;
5622;SDS011;2833;50.432;10.706;2024-03-23T12:58:17;5.40;;;2.67;;
5622;SDS011;2833;50.432;10.706;2024-03-23T13:00:42;2.93;;;2.30;;
5622;SDS011;2833;50.432;10.706;2024-03-23T13:03:09;4.10;;;2.50;;
5622;SDS011;2833;50.432;10.706;2024-03-23T13:05:38;3.57;;;2.77;;
5622;SDS011;2833;50.432;10.706;2024-03-23T13:08:03;9.73;;;5.50;;
5622;SDS011;2833;50.432;10.706;2024-03-23T13:10:29;3.50;;;2.47;;
5622;SDS011;2833;50.432;10.706;2024-03-23T13:12:54;4.23;;;2.80;;
5622;SDS011;2833;50.432;10.706;2024-03-23T13:15:19;3.30;;;2.77;;
5622;SDS011;2833;50.432;10.706;2024-03-23T13:17:45;7.50;;;2.50;;
5622;SDS011;2833;50.432;10.706;2024-03-23T13:20:10;3.57;;;2.80;;
5622;SDS011;2833;50.432;10.706;2024-03-23T13:22:39;2.80;;;2.10;;
5622;SDS011;2833;50.432;10.706;2024-03-23T13:25:04;4.03;;;2.03;;
5622;SDS011;2833;50.432;10.706;2024-03-23T13:27:29;4.17;;;1.83;;
5622;SDS011;2833;50.432;10.706;2024-03-23T13:29:55;2.73;;;1.53;;
5622;SDS011;2833;50.432;10.706;2024-03-23T13:32:20;6.23;;;3.10;;
5622;SDS011;2833;50.432;10.706;2024-03-23T13:34:45;16.37;;;7.20;;
5622;SDS011;2833;50.432;10.706;2024-03-23T13:37:10;8.10;;;2.73;;
5622;SDS011;2833;50.432;10.706;2024-03-23T13:39:36;1.30;;;1.20;;
5622;SDS011;2833;50.432;10.706;2024-03-23T13:42:01;2.23;;;1.80;;
5622;SDS011;2833;50.432;10.706;2024-03-23T13:44:26;9.60;;;2.77;;
5622;SDS011;2833;50.432;10.706;2024-03-23T13:46:51;5.87;;;2.63;;
5622;SDS011;2833;50.432;10.706;2024-03-23T13:49:27;1.83;;;1.70;;
5622;SDS011;2833;50.432;10.706;2024-03-23T13:52:07;4.57;;;2.80;;
5622;SDS011;2833;50.432;10.706;2024-03-23T13:54:33;7.53;;;3.50;;
5622;SDS011;2833;50.432;10.706;2024-03-23T13:56:58;4.53;;;1.67;;
5622;SDS011;2833;50.432;10.706;2024-03-23T13:59:23;7.70;;;2.87;;
5622;SDS011;2833;50.432;10.706;2024-03-23T14:01:49;4.20;;;2.20;;
5622;SDS011;2833;50.432;10.706;2024-03-23T14:04:14;10.47;;;3.47;;
5622;SDS011;2833;50.432;10.706;2024-03-23T14:06:41;6.73;;;2.50;;
5622;SDS011;2833;50.432;10.706;2024-03-23T14:09:07;2.50;;;1.80;;
5622;SDS011;2833;50.432;10.706;2024-03-23T14:11:35;5.70;;;2.17;;
5622;SDS011;2833;50.432;10.706;2024-03-23T14:14:01;7.17;;;2.23;;
5622;SDS011;2833;50.432;10.706;2024-03-23T14:16:28;11.40;;;3.60;;
5622;SDS011;2833;50.432;10.706;2024-03-23T14:18:53;5.40;;;1.93;;
5622;SDS011;2833;50.432;10.706;2024-03-23T14:21:18;3.47;;;1.63;;
5622;SDS011;2833;50.432;10.706;2024-03-23T14:23:44;5.83;;;2.37;;
5622;SDS011;2833;50.432;10.706;2024-03-23T14:26:09;3.67;;;2.57;;
5622;SDS011;2833;50.432;10.706;2024-03-23T14:28:34;5.00;;;1.80;;
5622;SDS011;2833;50.432;10.706;2024-03-23T14:31:00;4.30;;;2.60;;
5622;SDS011;2833;50.432;10.706;2024-03-23T14:33:25;2.03;;;1.93;;
5622;SDS011;2833;50.432;10.706;2024-03-23T14:35:54;3.10;;;2.57;;
5622;SDS011;2833;50.432;10.706;2024-03-23T14:38:20;2.60;;;1.70;;
5622;SDS011;2833;50.432;10.706;2024-03-23T14:40:46;5.53;;;1.60;;
5622;SDS011;2833;50.432;10.706;2024-03-23T14:43:11;5.63;;;1.80;;
5622;SDS011;2833;50.432;10.706;2024-03-23T14:45:37;3.10;;;1.80;;
5622;SDS011;2833;50.432;10.706;2024-03-23T14:48:02;1.50;;;1.40;;
5622;SDS011;2833;50.432;10.706;2024-03-23T14:50:27;3.70;;;1.73;;
5622;SDS011;2833;50.432;10.706;2024-03-23T14:52:52;1.83;;;1.70;;
5622;SDS011;2833;50.432;10.706;2024-03-23T14:55:18;1.67;;;1.33;;
5622;SDS011;2833;50.432;10.706;2024-03-23T14:57:43;1.83;;;1.53;;
5622;SDS011;2833;50.432;10.706;2024-03-23T15:00:08;1.50;;;1.40;;
5622;SDS011;2833;50.432;10.706;2024-03-23T15:02:36;1.43;;;1.33;;
5622;SDS011;2833;50.432;10.706;2024-03-23T15:05:01;2.87;;;1.30;;
5622;SDS011;2833;50.432;10.706;2024-03-23T15:07:28;2.50;;;1.40;;
5622;SDS011;2833;50.432;10.706;2024-03-23T15:09:53;1.30;;;1.20;;
5622;SDS011;2833;50.432;10.706;2024-03-23T15:12:18;2.27;;;1.60;;
5622;SDS011;2833;50.432;10.706;2024-03-23T15:14:44;1.17;;;1.07;;
5622;SDS011;2833;50.432;10.706;2024-03-23T15:17:09;2.63;;;1.50;;
5622;SDS011;2833;50.432;10.706;2024-03-23T15:19:34;3.73;;;1.40;;
5622;SDS011;2833;50.432;10.706;2024-03-23T15:21:59;4.50;;;1.60;;
5622;SDS011;2833;50.432;10.706;2024-03-23T15:24:25;1.90;;;1.50;;
5622;SDS011;2833;50.432;10.706;2024-03-23T15:26:50;4.40;;;2.20;;
5622;SDS011;2833;50.432;10.706;2024-03-23T15:29:17;2.40;;;1.53;;
5622;SDS011;2833;50.432;10.706;2024-03-23T15:31:42;1.53;;;1.30;;
5622;SDS011;2833;50.432;10.706;2024-03-23T15:34:08;1.40;;;1.20;;
5622;SDS011;2833;50.432;10.706;2024-03-23T15:36:35;3.90;;;2.37;;
5622;SDS011;2833;50.432;10.706;2024-03-23T15:39:02;2.43;;;2.23;;
5622;SDS011;2833;50.432;10.706;2024-03-23T15:41:27;7.40;;;2.80;;
5622;SDS011;2833;50.432;10.706;2024-03-23T15:43:52;5.37;;;3.53;;